createdAt,value
2023-05-21T00:00:28.454Z,17.24
2023-05-21T00:02:54.699Z,17.22
2023-05-21T00:05:20.865Z,17.23
2023-05-21T00:07:47.317Z,17.24
2023-05-21T00:10:13.470Z,17.22
2023-05-21T00:12:39.626Z,17.22
2023-05-21T00:15:05.796Z,17.23
2023-05-21T00:17:31.964Z,17.22
2023-05-21T00:19:58.140Z,17.22
2023-05-21T00:22:24.282Z,17.22
2023-05-21T00:24:50.425Z,17.22
2023-05-21T00:27:16.605Z,17.22
2023-05-21T00:29:44.220Z,17.21
2023-05-21T00:32:10.776Z,17.22
2023-05-21T00:34:37.033Z,17.22
2023-05-21T00:37:03.223Z,17.22
2023-05-21T00:39:29.347Z,17.21
2023-05-21T00:41:55.477Z,17.21
2023-05-21T00:44:21.632Z,17.21
2023-05-21T00:46:47.779Z,17.20
2023-05-21T00:49:14.028Z,17.21
2023-05-21T00:51:40.206Z,17.21
2023-05-21T00:54:06.341Z,17.22
2023-05-21T00:56:32.471Z,17.20
2023-05-21T00:58:58.634Z,17.20
2023-05-21T01:01:24.823Z,17.22
2023-05-21T01:03:50.976Z,17.21
2023-05-21T01:06:17.144Z,17.19
2023-05-21T01:08:43.284Z,17.20
2023-05-21T01:11:09.427Z,17.20
2023-05-21T01:13:35.585Z,17.19
2023-05-21T01:16:01.718Z,17.20
2023-05-21T01:18:27.902Z,17.20
2023-05-21T01:20:54.101Z,17.20
2023-05-21T01:23:20.251Z,17.20
2023-05-21T01:25:46.377Z,17.19
2023-05-21T01:28:12.602Z,17.20
2023-05-21T01:30:38.743Z,17.19
2023-05-21T01:33:04.993Z,17.19
2023-05-21T01:35:31.377Z,17.20
2023-05-21T01:37:57.519Z,17.19
2023-05-21T01:40:23.681Z,17.19
2023-05-21T01:42:49.847Z,17.19
2023-05-21T01:45:16.079Z,17.17
2023-05-21T01:47:42.268Z,17.19
2023-05-21T01:50:08.528Z,17.19
2023-05-21T01:52:34.654Z,17.18
2023-05-21T01:55:00.790Z,17.18
2023-05-21T01:57:27.345Z,17.18
2023-05-21T01:59:53.499Z,17.18
2023-05-21T02:02:19.693Z,17.18
2023-05-21T02:04:45.853Z,17.17
2023-05-21T02:07:11.992Z,17.17
2023-05-21T02:09:38.132Z,17.16
2023-05-21T02:12:04.290Z,17.18
2023-05-21T02:14:30.429Z,17.17
2023-05-21T02:16:56.556Z,17.17
2023-05-21T02:19:22.774Z,17.18
2023-05-21T02:21:48.966Z,17.16
2023-05-21T02:24:15.122Z,17.18
2023-05-21T02:26:41.281Z,17.17
2023-05-21T02:29:07.431Z,17.16
2023-05-21T02:31:33.588Z,17.16
2023-05-21T02:33:59.780Z,17.17
2023-05-21T02:36:25.953Z,17.18
2023-05-21T02:38:52.086Z,17.15
2023-05-21T02:41:18.262Z,17.16
2023-05-21T02:43:44.396Z,17.16
2023-05-21T02:46:10.602Z,17.16
2023-05-21T02:48:36.793Z,17.17
2023-05-21T02:51:02.974Z,17.16
2023-05-21T02:53:29.138Z,17.15
2023-05-21T02:55:55.289Z,17.15
2023-05-21T02:58:21.429Z,17.15
2023-05-21T03:00:47.594Z,17.14
2023-05-21T03:03:13.797Z,17.14
2023-05-21T03:05:40.005Z,17.14
2023-05-21T03:08:06.197Z,17.14
2023-05-21T03:10:32.372Z,17.14
2023-05-21T03:12:58.574Z,17.13
2023-05-21T03:15:24.766Z,17.14
2023-05-21T03:17:50.969Z,17.14
2023-05-21T03:20:17.160Z,17.15
2023-05-21T03:22:43.316Z,17.14
2023-05-21T03:25:09.478Z,17.14
2023-05-21T03:27:35.619Z,17.14
2023-05-21T03:30:01.769Z,17.13
2023-05-21T03:32:27.996Z,17.13
2023-05-21T03:34:54.149Z,17.12
2023-05-21T03:37:20.280Z,17.13
2023-05-21T03:39:46.522Z,17.12
2023-05-21T03:42:12.663Z,17.12
2023-05-21T03:44:38.817Z,17.12
2023-05-21T03:47:04.983Z,17.12
2023-05-21T03:49:31.106Z,17.13
2023-05-21T03:51:57.246Z,17.12
2023-05-21T03:54:23.423Z,17.11
2023-05-21T03:56:49.605Z,17.11
2023-05-21T03:59:15.768Z,17.11
2023-05-21T04:01:41.997Z,17.12
2023-05-21T04:04:08.291Z,17.13
2023-05-21T04:06:34.510Z,17.12
2023-05-21T04:09:00.705Z,17.12
2023-05-21T04:11:26.971Z,17.12
2023-05-21T04:13:54.891Z,17.11
2023-05-21T04:16:21.089Z,17.11
2023-05-21T04:18:47.753Z,17.11
2023-05-21T04:21:16.162Z,17.11
2023-05-21T04:23:42.341Z,17.11
2023-05-21T04:26:08.513Z,17.10
2023-05-21T04:28:34.652Z,17.10
2023-05-21T04:31:00.867Z,17.10
2023-05-21T04:33:27.078Z,17.09
2023-05-21T04:35:53.227Z,17.09
2023-05-21T04:38:19.382Z,17.10
2023-05-21T04:40:45.527Z,17.08
2023-05-21T04:43:11.652Z,17.09
2023-05-21T04:45:38.014Z,17.10
2023-05-21T04:48:04.455Z,17.09
2023-05-21T04:50:30.699Z,17.09
2023-05-21T04:52:56.976Z,17.08
2023-05-21T04:55:23.254Z,17.07
2023-05-21T04:57:49.393Z,17.08
2023-05-21T05:00:15.566Z,17.07
2023-05-21T05:02:41.758Z,17.07
2023-05-21T05:05:07.939Z,17.06
2023-05-21T05:07:34.123Z,17.06
2023-05-21T05:10:00.305Z,17.07
2023-05-21T05:12:26.440Z,17.06
2023-05-21T05:14:52.621Z,17.06
2023-05-21T05:17:18.897Z,17.06
2023-05-21T05:19:45.064Z,17.07
2023-05-21T05:22:13.336Z,17.06
2023-05-21T05:24:39.706Z,17.07
2023-05-21T05:27:05.910Z,17.07
2023-05-21T05:29:32.204Z,17.07
2023-05-21T05:31:58.483Z,17.07
2023-05-21T05:34:24.630Z,17.06
2023-05-21T05:36:50.813Z,17.07
2023-05-21T05:39:16.941Z,17.04
2023-05-21T05:41:43.200Z,17.06
2023-05-21T05:44:10.936Z,17.05
2023-05-21T05:46:37.338Z,17.05
2023-05-21T05:49:03.590Z,17.03
2023-05-21T05:51:29.765Z,17.04
2023-05-21T05:53:55.955Z,17.03
2023-05-21T05:56:22.086Z,17.04
2023-05-21T05:58:48.287Z,17.04
2023-05-21T06:01:14.426Z,17.03
2023-05-21T06:03:40.707Z,17.03
2023-05-21T06:06:07.090Z,17.02
2023-05-21T06:08:34.493Z,17.03
2023-05-21T06:11:02.258Z,17.02
2023-05-21T06:13:28.426Z,17.02
2023-05-21T06:15:54.647Z,17.01
2023-05-21T06:18:20.796Z,17.01
2023-05-21T06:20:46.965Z,17.01
2023-05-21T06:23:13.137Z,17.02
2023-05-21T06:25:39.386Z,17.01
2023-05-21T06:28:05.725Z,17.01
2023-05-21T06:30:31.895Z,17.02
2023-05-21T06:32:58.085Z,17.00
2023-05-21T06:35:24.456Z,17.00
2023-05-21T06:37:55.124Z,17.00
2023-05-21T06:40:21.381Z,17.01
2023-05-21T06:42:47.656Z,17.01
2023-05-21T06:45:13.811Z,17.01
2023-05-21T06:47:40.010Z,17.01
2023-05-21T06:50:06.315Z,17.02
2023-05-21T06:52:32.466Z,17.01
2023-05-21T06:54:58.628Z,16.99
2023-05-21T06:57:24.793Z,16.99
2023-05-21T06:59:50.939Z,16.99
2023-05-21T07:02:17.137Z,16.99
2023-05-21T07:04:43.349Z,16.99
2023-05-21T07:07:09.514Z,16.99
2023-05-21T07:09:35.662Z,17.00
2023-05-21T07:12:02.202Z,17.00
2023-05-21T07:14:28.376Z,16.99
2023-05-21T07:16:54.565Z,17.00
2023-05-21T07:19:20.925Z,17.01
2023-05-21T07:21:47.690Z,17.00
2023-05-21T07:24:13.903Z,17.01
2023-05-21T07:26:40.087Z,17.01
2023-05-21T07:29:06.322Z,17.01
2023-05-21T07:31:32.592Z,16.99
2023-05-21T07:33:58.845Z,16.98
2023-05-21T07:36:24.976Z,16.98
2023-05-21T07:38:51.205Z,16.99
2023-05-21T07:41:18.833Z,16.99
2023-05-21T07:43:45.161Z,16.99
2023-05-21T07:46:11.335Z,16.99
2023-05-21T07:48:37.574Z,17.00
2023-05-21T07:51:03.737Z,17.00
2023-05-21T07:53:29.892Z,16.99
2023-05-21T07:55:56.047Z,16.99
2023-05-21T07:58:22.174Z,17.00
2023-05-21T08:00:48.399Z,16.98
2023-05-21T08:03:14.670Z,16.99
2023-05-21T08:05:40.827Z,17.00
2023-05-21T08:08:06.992Z,17.00
2023-05-21T08:10:33.202Z,17.00
2023-05-21T08:12:59.358Z,17.01
2023-05-21T08:15:25.503Z,16.99
2023-05-21T08:17:51.717Z,17.01
2023-05-21T08:20:17.986Z,17.00
2023-05-21T08:22:44.115Z,17.01
2023-05-21T08:25:10.280Z,17.01
2023-05-21T08:27:36.457Z,17.01
2023-05-21T08:30:02.626Z,17.01
2023-05-21T08:32:28.858Z,17.02
2023-05-21T08:34:55.042Z,17.02
2023-05-21T08:37:21.180Z,17.02
2023-05-21T08:39:47.327Z,17.03
2023-05-21T08:42:17.642Z,17.03
2023-05-21T08:44:48.878Z,17.02
2023-05-21T08:47:15.104Z,17.01
2023-05-21T08:49:41.236Z,17.01
2023-05-21T08:52:07.436Z,17.01
2023-05-21T08:54:33.570Z,17.01
2023-05-21T08:56:59.748Z,17.02
2023-05-21T08:59:26.145Z,17.03
2023-05-21T09:01:52.516Z,17.03
2023-05-21T09:04:20.956Z,17.03
2023-05-21T09:06:47.734Z,17.03
2023-05-21T09:09:13.916Z,17.03
2023-05-21T09:11:40.072Z,17.04
2023-05-21T09:14:06.318Z,17.03
2023-05-21T09:16:32.466Z,17.05
2023-05-21T09:18:58.622Z,17.07
2023-05-21T09:21:24.807Z,17.08
2023-05-21T09:23:50.978Z,17.06
2023-05-21T09:26:17.159Z,17.06
2023-05-21T09:28:43.326Z,17.07
2023-05-21T09:31:09.557Z,17.08
2023-05-21T09:33:35.742Z,17.07
2023-05-21T09:36:01.920Z,17.08
2023-05-21T09:38:28.065Z,17.08
2023-05-21T09:40:54.276Z,17.08
2023-05-21T09:43:20.430Z,17.08
2023-05-21T09:45:46.578Z,17.08
2023-05-21T09:48:12.722Z,17.09
2023-05-21T09:50:39.112Z,17.10
2023-05-21T09:53:05.333Z,17.10
2023-05-21T09:55:31.483Z,17.10
2023-05-21T09:57:57.638Z,17.10
2023-05-21T10:00:23.811Z,17.10
2023-05-21T10:02:50.025Z,17.11
2023-05-21T10:05:16.239Z,17.10
2023-05-21T10:07:42.393Z,17.11
2023-05-21T10:10:08.540Z,17.11
2023-05-21T10:12:34.717Z,17.11
2023-05-21T10:15:00.869Z,17.12
2023-05-21T10:17:27.030Z,17.11
2023-05-21T10:19:53.369Z,17.14
2023-05-21T10:22:19.494Z,17.14
2023-05-21T10:24:45.620Z,17.14
2023-05-21T10:27:11.784Z,17.14
2023-05-21T10:29:37.938Z,17.15
2023-05-21T10:32:04.098Z,17.16
2023-05-21T10:34:30.296Z,17.16
2023-05-21T10:36:56.438Z,17.17
2023-05-21T10:39:22.605Z,17.17
2023-05-21T10:41:48.749Z,17.16
2023-05-21T10:44:14.891Z,17.17
2023-05-21T10:46:41.042Z,17.18
2023-05-21T10:49:07.212Z,17.18
2023-05-21T10:51:33.349Z,17.17
2023-05-21T10:53:59.503Z,17.17
2023-05-21T10:56:25.671Z,17.18
2023-05-21T10:58:51.806Z,17.19
2023-05-21T11:01:17.932Z,17.20
2023-05-21T11:03:44.274Z,17.21
2023-05-21T11:06:10.488Z,17.21
2023-05-21T11:08:36.633Z,17.23
2023-05-21T11:11:02.784Z,17.22
2023-05-21T11:13:28.919Z,17.23
2023-05-21T11:15:55.071Z,17.24
2023-05-21T11:18:21.218Z,17.23
2023-05-21T11:20:47.362Z,17.24
2023-05-21T11:23:13.517Z,17.25
2023-05-21T11:25:39.694Z,17.27
2023-05-21T11:28:05.867Z,17.25
2023-05-21T11:30:33.541Z,17.27
2023-05-21T11:33:01.492Z,17.28
2023-05-21T11:35:27.759Z,17.27
2023-05-21T11:37:53.885Z,17.27
2023-05-21T11:40:20.031Z,17.28
2023-05-21T11:42:46.192Z,17.28
2023-05-21T11:45:12.328Z,17.29
2023-05-21T11:47:38.616Z,17.29
2023-05-21T11:50:04.886Z,17.29
2023-05-21T11:52:31.055Z,17.29
2023-05-21T11:54:57.648Z,17.30
2023-05-21T11:57:24.890Z,17.30
2023-05-21T11:59:51.038Z,17.30
2023-05-21T12:02:17.216Z,17.32
2023-05-21T12:04:43.353Z,17.32
2023-05-21T12:07:11.905Z,17.32
2023-05-21T12:09:38.068Z,17.31
2023-05-21T12:12:04.194Z,17.33
2023-05-21T12:14:30.508Z,17.33
2023-05-21T12:16:57.023Z,17.33
2023-05-21T12:19:23.302Z,17.34
2023-05-21T12:21:49.517Z,17.35
2023-05-21T12:24:15.735Z,17.35
2023-05-21T12:26:41.877Z,17.35
2023-05-21T12:29:08.053Z,17.35
2023-05-21T12:31:34.275Z,17.36
2023-05-21T12:34:00.425Z,17.37
2023-05-21T12:36:26.589Z,17.37
2023-05-21T12:38:52.807Z,17.38
2023-05-21T12:41:18.956Z,17.38
2023-05-21T12:43:45.085Z,17.39
2023-05-21T12:46:11.272Z,17.39
2023-05-21T12:48:37.458Z,17.40
2023-05-21T12:51:07.716Z,17.41
2023-05-21T12:53:33.910Z,17.41
2023-05-21T12:56:00.041Z,17.42
2023-05-21T12:58:26.186Z,17.43
2023-05-21T13:00:52.388Z,17.43
2023-05-21T13:03:18.569Z,17.44
2023-05-21T13:05:46.401Z,17.43
2023-05-21T13:08:12.552Z,17.44
2023-05-21T13:10:38.935Z,17.44
2023-05-21T13:13:05.295Z,17.45
2023-05-21T13:15:31.476Z,17.45
2023-05-21T13:17:57.717Z,17.46
2023-05-21T13:20:23.900Z,17.48
2023-05-21T13:22:50.100Z,17.46
2023-05-21T13:25:16.352Z,17.49
2023-05-21T13:27:42.495Z,17.48
2023-05-21T13:30:08.714Z,17.49
2023-05-21T13:32:35.059Z,17.49
2023-05-21T13:35:01.297Z,17.50
2023-05-21T13:37:27.439Z,17.52
2023-05-21T13:39:53.590Z,17.53
2023-05-21T13:42:19.773Z,17.50
2023-05-21T13:44:45.958Z,17.52
2023-05-21T13:47:12.173Z,17.52
2023-05-21T13:49:38.407Z,17.52
2023-05-21T13:52:04.583Z,17.53
2023-05-21T13:54:30.748Z,17.53
2023-05-21T13:56:56.914Z,17.53
2023-05-21T13:59:23.118Z,17.54
2023-05-21T14:01:49.523Z,17.54
2023-05-21T14:04:18.606Z,17.55
2023-05-21T14:06:44.779Z,17.56
2023-05-21T14:09:10.958Z,17.57
2023-05-21T14:11:37.145Z,17.57
2023-05-21T14:14:03.307Z,17.58
2023-05-21T14:16:29.624Z,17.59
2023-05-21T14:18:55.967Z,17.59
2023-05-21T14:21:22.180Z,17.59
2023-05-21T14:23:48.360Z,17.59
2023-05-21T14:26:14.569Z,17.61
2023-05-21T14:28:40.788Z,17.61
2023-05-21T14:31:06.922Z,17.60
2023-05-21T14:33:33.071Z,17.62
2023-05-21T14:35:59.246Z,17.63
2023-05-21T14:38:25.392Z,17.63
2023-05-21T14:40:51.540Z,17.62
2023-05-21T14:43:17.700Z,17.64
2023-05-21T14:45:43.861Z,17.65
2023-05-21T14:48:10.119Z,17.66
2023-05-21T14:50:36.333Z,17.67
2023-05-21T14:53:02.481Z,17.68
2023-05-21T14:55:28.626Z,17.67
2023-05-21T14:57:55.226Z,17.68
2023-05-21T15:00:21.359Z,17.68
2023-05-21T15:02:47.630Z,17.69
2023-05-21T15:05:13.869Z,17.71
2023-05-21T15:07:40.026Z,17.72
2023-05-21T15:10:06.175Z,17.73
2023-05-21T15:12:32.338Z,17.73
2023-05-21T15:14:58.700Z,17.73
2023-05-21T15:17:24.914Z,17.76
2023-05-21T15:19:51.091Z,17.76
2023-05-21T15:22:17.239Z,17.77
2023-05-21T15:24:43.394Z,17.77
2023-05-21T15:27:09.571Z,17.78
2023-05-21T15:29:35.693Z,17.79
2023-05-21T15:32:01.821Z,17.80
2023-05-21T15:34:28.061Z,17.79
2023-05-21T15:36:54.280Z,17.81
2023-05-21T15:39:20.433Z,17.81
2023-05-21T15:41:46.781Z,17.82
2023-05-21T15:44:12.947Z,17.82
2023-05-21T15:46:39.168Z,17.83
2023-05-21T15:49:05.424Z,17.84
2023-05-21T15:51:31.609Z,17.84
2023-05-21T15:53:57.755Z,17.85
2023-05-21T15:56:23.957Z,17.86
2023-05-21T15:58:50.100Z,17.86
2023-05-21T16:01:16.282Z,17.86
2023-05-21T16:03:42.553Z,17.87
2023-05-21T16:06:08.696Z,17.88
2023-05-21T16:08:34.835Z,17.90
2023-05-21T16:11:01.022Z,17.89
2023-05-21T16:13:27.180Z,17.90
2023-05-21T16:15:53.319Z,17.90
2023-05-21T16:18:19.517Z,17.91
2023-05-21T16:20:45.660Z,17.91
2023-05-21T16:23:11.791Z,17.92
2023-05-21T16:25:38.235Z,17.93
2023-05-21T16:28:04.482Z,17.92
2023-05-21T16:30:30.657Z,17.93
2023-05-21T16:32:56.887Z,17.95
2023-05-21T16:35:23.080Z,17.94
2023-05-21T16:37:49.234Z,17.96
2023-05-21T16:40:15.396Z,17.97
2023-05-21T16:42:41.555Z,17.96
2023-05-21T16:45:09.843Z,17.97
2023-05-21T16:47:36.053Z,17.98
2023-05-21T16:50:02.208Z,17.98
2023-05-21T16:52:28.369Z,17.99
2023-05-21T16:54:54.545Z,17.99
2023-05-21T16:57:20.700Z,18.00
2023-05-21T16:59:46.836Z,17.98
2023-05-21T17:02:13.216Z,17.99
2023-05-21T17:04:39.362Z,18.01
2023-05-21T17:07:05.502Z,18.00
2023-05-21T17:09:31.739Z,18.02
2023-05-21T17:11:57.890Z,18.02
2023-05-21T17:14:33.657Z,18.03
2023-05-21T17:17:00.766Z,18.05
2023-05-21T17:19:27.134Z,18.03
2023-05-21T17:21:53.289Z,18.03
2023-05-21T17:24:19.470Z,18.04
2023-05-21T17:26:45.623Z,18.06
2023-05-21T17:29:12.344Z,18.04
2023-05-21T17:31:38.946Z,18.05
2023-05-21T17:34:05.246Z,18.04
2023-05-21T17:36:32.232Z,18.06
2023-05-21T17:38:58.958Z,18.07
2023-05-21T17:41:25.113Z,18.07
2023-05-21T17:43:51.260Z,18.08
2023-05-21T17:46:17.449Z,18.08
2023-05-21T17:48:43.628Z,18.08
2023-05-21T17:51:09.771Z,18.07
2023-05-21T17:53:35.925Z,18.08
2023-05-21T17:56:02.076Z,18.09
2023-05-21T17:58:28.227Z,18.09
2023-05-21T18:00:54.487Z,18.09
2023-05-21T18:03:20.670Z,18.10
2023-05-21T18:05:46.816Z,18.09
2023-05-21T18:08:13.001Z,18.09
2023-05-21T18:10:39.145Z,18.10
2023-05-21T18:13:05.301Z,18.10
2023-05-21T18:15:31.462Z,18.10
2023-05-21T18:17:57.629Z,18.10
2023-05-21T18:20:23.788Z,18.12
2023-05-21T18:22:49.968Z,18.10
2023-05-21T18:25:29.629Z,18.10
2023-05-21T18:27:55.791Z,18.12
2023-05-21T18:30:22.063Z,18.11
2023-05-21T18:32:48.334Z,18.12
2023-05-21T18:35:16.660Z,18.13
2023-05-21T18:37:43.073Z,18.13
2023-05-21T18:40:09.222Z,18.10
2023-05-21T18:42:35.412Z,18.12
2023-05-21T18:45:01.561Z,18.12
2023-05-21T18:47:27.747Z,18.12
2023-05-21T18:49:53.945Z,18.12
2023-05-21T18:52:20.098Z,18.13
2023-05-21T18:54:46.245Z,18.13
2023-05-21T18:57:12.392Z,18.13
2023-05-21T18:59:38.537Z,18.14
2023-05-21T19:02:04.868Z,18.15
2023-05-21T19:04:31.131Z,18.14
2023-05-21T19:06:57.276Z,18.16
2023-05-21T19:09:23.536Z,18.16
2023-05-21T19:11:49.706Z,18.16
2023-05-21T19:14:15.882Z,18.16
2023-05-21T19:16:42.098Z,18.17
2023-05-21T19:19:08.406Z,18.16
2023-05-21T19:21:34.584Z,18.17
2023-05-21T19:24:01.059Z,18.17
2023-05-21T19:26:27.421Z,18.17
2023-05-21T19:28:53.967Z,18.19
2023-05-21T19:31:20.211Z,18.18
2023-05-21T19:33:46.546Z,18.19
2023-05-21T19:36:12.840Z,18.19
2023-05-21T19:38:38.981Z,18.20
2023-05-21T19:41:05.228Z,18.18
2023-05-21T19:43:31.371Z,18.19
2023-05-21T19:45:57.570Z,18.20
2023-05-21T19:48:23.807Z,18.19
2023-05-21T19:50:49.932Z,18.20
2023-05-21T19:53:16.077Z,18.20
2023-05-21T19:55:42.215Z,18.20
2023-05-21T19:58:08.379Z,18.20
2023-05-21T20:00:34.520Z,18.20
2023-05-21T20:03:00.783Z,18.19
2023-05-21T20:05:26.935Z,18.18
2023-05-21T20:07:53.062Z,18.19
2023-05-21T20:10:19.349Z,18.20
2023-05-21T20:12:45.541Z,18.19
2023-05-21T20:15:11.714Z,18.19
2023-05-21T20:17:37.927Z,18.19
2023-05-21T20:20:04.092Z,18.19
2023-05-21T20:22:30.218Z,18.19
2023-05-21T20:24:56.378Z,18.19
2023-05-21T20:27:22.521Z,18.19
2023-05-21T20:29:48.660Z,18.19
2023-05-21T20:32:14.828Z,18.19
2023-05-21T20:34:54.228Z,18.20
2023-05-21T20:37:27.169Z,18.19
2023-05-21T20:39:53.313Z,18.19
2023-05-21T20:42:19.465Z,18.19
2023-05-21T20:44:45.656Z,18.19
2023-05-21T20:47:11.824Z,18.20
2023-05-21T20:49:37.985Z,18.20
2023-05-21T20:52:04.164Z,18.19
2023-05-21T20:54:30.304Z,18.19
2023-05-21T20:56:56.446Z,18.19
2023-05-21T20:59:22.780Z,18.19
2023-05-21T21:01:49.244Z,18.18
2023-05-21T21:04:15.460Z,18.18
2023-05-21T21:06:41.638Z,18.19
2023-05-21T21:09:07.800Z,18.20
2023-05-21T21:11:33.952Z,18.19
2023-05-21T21:14:00.126Z,18.18
2023-05-21T21:16:26.344Z,18.18
2023-05-21T21:18:52.654Z,18.19
2023-05-21T21:21:18.847Z,18.18
2023-05-21T21:23:44.983Z,18.18
2023-05-21T21:26:11.131Z,18.20
2023-05-21T21:28:37.311Z,18.19
2023-05-21T21:31:03.446Z,18.19
2023-05-21T21:33:29.626Z,18.18
2023-05-21T21:35:55.825Z,18.18
2023-05-21T21:38:22.185Z,18.18
2023-05-21T21:40:48.413Z,18.19
2023-05-21T21:43:14.841Z,18.19
2023-05-21T21:45:41.148Z,18.18
2023-05-21T21:48:07.376Z,18.20
2023-05-21T21:50:33.570Z,18.19
2023-05-21T21:52:59.721Z,18.20
2023-05-21T21:55:25.872Z,18.19
2023-05-21T21:57:52.038Z,18.18
2023-05-21T22:00:18.186Z,18.18
2023-05-21T22:02:44.337Z,18.18
2023-05-21T22:05:10.503Z,18.18
2023-05-21T22:07:36.648Z,18.19
2023-05-21T22:10:02.793Z,18.20
2023-05-21T22:12:29.125Z,18.17
2023-05-21T22:14:55.304Z,18.17
2023-05-21T22:17:21.511Z,18.18
2023-05-21T22:19:47.700Z,18.19
2023-05-21T22:22:13.826Z,18.18
2023-05-21T22:24:40.004Z,18.19
2023-05-21T22:27:06.195Z,18.19
2023-05-21T22:29:32.328Z,18.18
2023-05-21T22:31:58.465Z,18.19
2023-05-21T22:34:24.638Z,18.19
2023-05-21T22:36:50.783Z,18.18
2023-05-21T22:39:16.922Z,18.16
2023-05-21T22:41:43.064Z,18.17
2023-05-21T22:44:09.213Z,18.15
2023-05-21T22:46:35.465Z,18.17
2023-05-21T22:49:01.746Z,18.16
2023-05-21T22:51:27.906Z,18.16
2023-05-21T22:53:55.405Z,18.16
2023-05-21T22:56:21.558Z,18.14
2023-05-21T22:58:47.700Z,18.14
2023-05-21T23:01:13.847Z,18.14
2023-05-21T23:03:39.997Z,18.16
2023-05-21T23:06:06.159Z,18.16
2023-05-21T23:08:32.343Z,18.16
2023-05-21T23:10:58.498Z,18.16
2023-05-21T23:13:24.652Z,18.16
2023-05-21T23:15:50.818Z,18.16
2023-05-21T23:18:17.013Z,18.15
2023-05-21T23:20:43.243Z,18.15
2023-05-21T23:23:09.424Z,18.14
2023-05-21T23:25:35.577Z,18.16
2023-05-21T23:28:01.722Z,18.16
2023-05-21T23:30:27.991Z,18.14
2023-05-21T23:32:54.170Z,18.15
2023-05-21T23:35:20.364Z,18.13
2023-05-21T23:37:46.537Z,18.14
2023-05-21T23:40:12.722Z,18.15
2023-05-21T23:42:38.857Z,18.15
2023-05-21T23:45:05.019Z,18.15
2023-05-21T23:47:31.180Z,18.15
2023-05-21T23:49:57.319Z,18.15
2023-05-21T23:52:23.461Z,18.15
2023-05-21T23:54:49.633Z,18.15
2023-05-21T23:57:15.775Z,18.15
2023-05-21T23:59:41.914Z,18.15
